sensor_id;sensor_type;location;lat;lon;timestamp;temperature;humidity
80695;DHT22;70059;42.702;23.312;2024-03-23T00:54:06;7.80;51.30
80695;DHT22;70059;42.702;23.312;2024-03-23T00:56:37;7.70;51.40
80695;DHT22;70059;42.702;23.312;2024-03-23T00:59:03;7.60;51.60
80695;DHT22;70059;42.702;23.312;2024-03-23T01:01:30;7.60;52.20
80695;DHT22;70059;42.702;23.312;2024-03-23T01:04:02;7.60;52.00
80695;DHT22;70059;42.702;23.312;2024-03-23T01:06:28;7.50;52.20
80695;DHT22;70059;42.702;23.312;2024-03-23T01:08:54;7.50;52.10
80695;DHT22;70059;42.702;23.312;2024-03-23T01:11:19;7.40;52.20
80695;DHT22;70059;42.702;23.312;2024-03-23T01:13:45;7.40;52.80
80695;DHT22;70059;42.702;23.312;2024-03-23T01:16:19;7.40;52.40
80695;DHT22;70059;42.702;23.312;2024-03-23T01:18:46;7.40;52.50
80695;DHT22;70059;42.702;23.312;2024-03-23T01:21:12;7.50;51.80
80695;DHT22;70059;42.702;23.312;2024-03-23T01:23:38;7.50;51.20
80695;DHT22;70059;42.702;23.312;2024-03-23T01:26:03;7.50;50.80
80695;DHT22;70059;42.702;23.312;2024-03-23T01:28:29;7.50;51.00
80695;DHT22;70059;42.702;23.312;2024-03-23T01:30:54;7.40;51.40
80695;DHT22;70059;42.702;23.312;2024-03-23T01:33:20;7.40;51.40
80695;DHT22;70059;42.702;23.312;2024-03-23T01:35:46;7.40;51.30
80695;DHT22;70059;42.702;23.312;2024-03-23T01:38:11;7.30;51.60
80695;DHT22;70059;42.702;23.312;2024-03-23T01:40:37;7.20;52.20
80695;DHT22;70059;42.702;23.312;2024-03-23T01:43:07;7.10;52.30
80695;DHT22;70059;42.702;23.312;2024-03-23T01:45:34;6.80;52.80
80695;DHT22;70059;42.702;23.312;2024-03-23T01:48:00;6.70;53.40
80695;DHT22;70059;42.702;23.312;2024-03-23T01:50:27;6.70;53.70
80695;DHT22;70059;42.702;23.312;2024-03-23T01:52:53;6.70;53.50
80695;DHT22;70059;42.702;23.312;2024-03-23T01:55:19;6.60;53.90
80695;DHT22;70059;42.702;23.312;2024-03-23T01:57:45;6.50;54.20
80695;DHT22;70059;42.702;23.312;2024-03-23T02:00:11;6.50;54.30
80695;DHT22;70059;42.702;23.312;2024-03-23T02:02:46;6.50;54.50
80695;DHT22;70059;42.702;23.312;2024-03-23T02:05:13;6.50;54.60
80695;DHT22;70059;42.702;23.312;2024-03-23T02:07:40;6.50;54.70
80695;DHT22;70059;42.702;23.312;2024-03-23T02:10:07;6.50;54.50
80695;DHT22;70059;42.702;23.312;2024-03-23T02:12:32;6.40;54.90
80695;DHT22;70059;42.702;23.312;2024-03-23T02:14:58;6.50;54.80
80695;DHT22;70059;42.702;23.312;2024-03-23T02:17:24;6.50;54.40
80695;DHT22;70059;42.702;23.312;2024-03-23T02:19:51;6.50;54.40
80695;DHT22;70059;42.702;23.312;2024-03-23T02:22:17;6.40;54.60
80695;DHT22;70059;42.702;23.312;2024-03-23T02:24:43;6.30;54.80
80695;DHT22;70059;42.702;23.312;2024-03-23T02:27:09;6.20;55.60
80695;DHT22;70059;42.702;23.312;2024-03-23T02:29:34;6.30;55.50
80695;DHT22;70059;42.702;23.312;2024-03-23T02:32:05;6.40;55.30
80695;DHT22;70059;42.702;23.312;2024-03-23T02:34:31;6.40;55.30
80695;DHT22;70059;42.702;23.312;2024-03-23T02:36:57;6.30;55.10
80695;DHT22;70059;42.702;23.312;2024-03-23T02:39:25;6.20;55.30
80695;DHT22;70059;42.702;23.312;2024-03-23T02:41:51;6.20;55.80
80695;DHT22;70059;42.702;23.312;2024-03-23T02:44:17;6.20;55.90
80695;DHT22;70059;42.702;23.312;2024-03-23T02:46:42;6.20;56.10
80695;DHT22;70059;42.702;23.312;2024-03-23T02:49:08;6.10;56.30
80695;DHT22;70059;42.702;23.312;2024-03-23T02:51:34;6.10;56.40
80695;DHT22;70059;42.702;23.312;2024-03-23T02:54:05;6.10;56.00
80695;DHT22;70059;42.702;23.312;2024-03-23T02:56:32;6.20;55.90
80695;DHT22;70059;42.702;23.312;2024-03-23T02:58:58;6.20;56.40
80695;DHT22;70059;42.702;23.312;2024-03-23T03:01:24;6.30;55.80
80695;DHT22;70059;42.702;23.312;2024-03-23T03:03:51;6.20;55.60
80695;DHT22;70059;42.702;23.312;2024-03-23T03:06:26;6.20;55.80
80695;DHT22;70059;42.702;23.312;2024-03-23T03:08:52;6.20;55.90
80695;DHT22;70059;42.702;23.312;2024-03-23T03:11:17;6.10;56.20
80695;DHT22;70059;42.702;23.312;2024-03-23T03:13:43;6.00;56.30
80695;DHT22;70059;42.702;23.312;2024-03-23T03:16:12;5.90;56.40
80695;DHT22;70059;42.702;23.312;2024-03-23T03:18:38;5.90;56.60
80695;DHT22;70059;42.702;23.312;2024-03-23T03:21:06;5.90;55.90
80695;DHT22;70059;42.702;23.312;2024-03-23T03:23:38;5.90;56.30
80695;DHT22;70059;42.702;23.312;2024-03-23T03:26:09;5.90;56.40
80695;DHT22;70059;42.702;23.312;2024-03-23T03:28:34;5.80;55.70
80695;DHT22;70059;42.702;23.312;2024-03-23T03:31:00;5.90;56.40
80695;DHT22;70059;42.702;23.312;2024-03-23T03:33:29;6.00;55.80
80695;DHT22;70059;42.702;23.312;2024-03-23T03:35:55;5.80;56.10
80695;DHT22;70059;42.702;23.312;2024-03-23T03:38:21;5.60;56.60
80695;DHT22;70059;42.702;23.312;2024-03-23T03:40:47;5.50;57.20
80695;DHT22;70059;42.702;23.312;2024-03-23T03:43:17;5.50;57.00
80695;DHT22;70059;42.702;23.312;2024-03-23T03:45:52;5.50;57.50
80695;DHT22;70059;42.702;23.312;2024-03-23T03:48:18;5.50;57.50
80695;DHT22;70059;42.702;23.312;2024-03-23T03:50:44;5.50;57.00
80695;DHT22;70059;42.702;23.312;2024-03-23T03:53:09;5.60;57.10
80695;DHT22;70059;42.702;23.312;2024-03-23T03:55:35;5.60;56.70
80695;DHT22;70059;42.702;23.312;2024-03-23T03:58:01;5.70;57.10
80695;DHT22;70059;42.702;23.312;2024-03-23T04:00:26;5.80;56.70
80695;DHT22;70059;42.702;23.312;2024-03-23T04:02:52;5.70;56.60
80695;DHT22;70059;42.702;23.312;2024-03-23T04:05:18;5.70;56.70
80695;DHT22;70059;42.702;23.312;2024-03-23T04:07:46;5.80;56.60
80695;DHT22;70059;42.702;23.312;2024-03-23T04:10:11;5.80;56.70
80695;DHT22;70059;42.702;23.312;2024-03-23T04:12:37;5.80;56.70
80695;DHT22;70059;42.702;23.312;2024-03-23T04:15:10;5.90;56.40
80695;DHT22;70059;42.702;23.312;2024-03-23T04:17:36;5.80;56.60
80695;DHT22;70059;42.702;23.312;2024-03-23T04:20:02;5.80;56.70
80695;DHT22;70059;42.702;23.312;2024-03-23T04:22:31;5.70;56.60
80695;DHT22;70059;42.702;23.312;2024-03-23T04:24:57;5.70;56.60
80695;DHT22;70059;42.702;23.312;2024-03-23T04:27:25;5.70;57.00
80695;DHT22;70059;42.702;23.312;2024-03-23T04:29:52;5.80;56.70
80695;DHT22;70059;42.702;23.312;2024-03-23T04:32:18;5.80;56.10
80695;DHT22;70059;42.702;23.312;2024-03-23T04:34:47;5.90;56.70
80695;DHT22;70059;42.702;23.312;2024-03-23T04:37:13;5.90;56.50
80695;DHT22;70059;42.702;23.312;2024-03-23T04:39:39;5.80;56.20
80695;DHT22;70059;42.702;23.312;2024-03-23T04:42:05;5.70;56.70
80695;DHT22;70059;42.702;23.312;2024-03-23T04:44:32;5.80;57.10
80695;DHT22;70059;42.702;23.312;2024-03-23T04:47:00;5.80;56.60
80695;DHT22;70059;42.702;23.312;2024-03-23T04:49:26;5.90;55.60
80695;DHT22;70059;42.702;23.312;2024-03-23T04:51:51;5.90;55.60
80695;DHT22;70059;42.702;23.312;2024-03-23T04:54:17;5.90;55.50
80695;DHT22;70059;42.702;23.312;2024-03-23T04:56:43;6.00;56.20
80695;DHT22;70059;42.702;23.312;2024-03-23T04:59:08;5.90;56.00
80695;DHT22;70059;42.702;23.312;2024-03-23T05:01:34;5.90;56.10
80695;DHT22;70059;42.702;23.312;2024-03-23T05:04:02;5.90;56.20
80695;DHT22;70059;42.702;23.312;2024-03-23T05:06:28;5.90;56.10
80695;DHT22;70059;42.702;23.312;2024-03-23T05:08:57;6.00;56.50
80695;DHT22;70059;42.702;23.312;2024-03-23T05:11:22;6.00;56.00
80695;DHT22;70059;42.702;23.312;2024-03-23T05:13:48;6.10;54.80
80695;DHT22;70059;42.702;23.312;2024-03-23T05:16:18;6.30;54.80
80695;DHT22;70059;42.702;23.312;2024-03-23T05:18:44;6.40;54.40
80695;DHT22;70059;42.702;23.312;2024-03-23T05:21:10;6.50;53.40
80695;DHT22;70059;42.702;23.312;2024-03-23T05:23:35;6.50;53.10
80695;DHT22;70059;42.702;23.312;2024-03-23T05:26:01;6.40;53.80
80695;DHT22;70059;42.702;23.312;2024-03-23T05:28:28;6.40;53.50
80695;DHT22;70059;42.702;23.312;2024-03-23T05:31:01;6.50;54.60
80695;DHT22;70059;42.702;23.312;2024-03-23T05:33:28;6.50;53.80
80695;DHT22;70059;42.702;23.312;2024-03-23T05:36:01;6.50;53.10
80695;DHT22;70059;42.702;23.312;2024-03-23T05:38:27;6.40;54.10
80695;DHT22;70059;42.702;23.312;2024-03-23T05:40:57;6.40;53.90
80695;DHT22;70059;42.702;23.312;2024-03-23T05:43:24;6.40;53.70
80695;DHT22;70059;42.702;23.312;2024-03-23T05:45:56;6.50;53.50
80695;DHT22;70059;42.702;23.312;2024-03-23T05:48:22;6.80;52.50
80695;DHT22;70059;42.702;23.312;2024-03-23T05:50:50;6.90;52.20
80695;DHT22;70059;42.702;23.312;2024-03-23T05:53:16;6.90;52.40
80695;DHT22;70059;42.702;23.312;2024-03-23T05:55:42;6.80;52.90
80695;DHT22;70059;42.702;23.312;2024-03-23T05:58:08;6.90;52.50
80695;DHT22;70059;42.702;23.312;2024-03-23T06:00:34;6.80;52.50
80695;DHT22;70059;42.702;23.312;2024-03-23T06:03:00;6.80;52.60
80695;DHT22;70059;42.702;23.312;2024-03-23T06:05:26;6.80;51.90
80695;DHT22;70059;42.702;23.312;2024-03-23T06:07:51;6.90;52.20
80695;DHT22;70059;42.702;23.312;2024-03-23T06:10:17;7.10;51.70
80695;DHT22;70059;42.702;23.312;2024-03-23T06:12:43;7.00;52.40
80695;DHT22;70059;42.702;23.312;2024-03-23T06:15:10;7.00;52.40
80695;DHT22;70059;42.702;23.312;2024-03-23T06:17:39;7.10;51.90
80695;DHT22;70059;42.702;23.312;2024-03-23T06:20:05;7.10;51.70
80695;DHT22;70059;42.702;23.312;2024-03-23T06:22:32;7.20;51.50
80695;DHT22;70059;42.702;23.312;2024-03-23T06:24:59;7.40;51.50
80695;DHT22;70059;42.702;23.312;2024-03-23T06:27:24;7.50;50.90
80695;DHT22;70059;42.702;23.312;2024-03-23T06:29:50;7.70;50.30
80695;DHT22;70059;42.702;23.312;2024-03-23T06:32:17;7.90;49.70
80695;DHT22;70059;42.702;23.312;2024-03-23T06:34:43;8.20;49.30
80695;DHT22;70059;42.702;23.312;2024-03-23T06:37:11;8.50;48.40
80695;DHT22;70059;42.702;23.312;2024-03-23T06:39:37;8.90;46.70
80695;DHT22;70059;42.702;23.312;2024-03-23T06:42:03;9.20;46.30
80695;DHT22;70059;42.702;23.312;2024-03-23T06:44:29;9.30;45.30
80695;DHT22;70059;42.702;23.312;2024-03-23T06:46:57;9.40;45.00
80695;DHT22;70059;42.702;23.312;2024-03-23T06:49:23;9.50;44.70
80695;DHT22;70059;42.702;23.312;2024-03-23T06:51:48;9.70;44.50
80695;DHT22;70059;42.702;23.312;2024-03-23T06:54:14;9.90;43.80
80695;DHT22;70059;42.702;23.312;2024-03-23T06:56:40;10.10;43.70
80695;DHT22;70059;42.702;23.312;2024-03-23T06:59:06;10.40;43.20
80695;DHT22;70059;42.702;23.312;2024-03-23T07:01:40;10.70;42.50
80695;DHT22;70059;42.702;23.312;2024-03-23T07:04:06;11.10;40.90
80695;DHT22;70059;42.702;23.312;2024-03-23T07:06:32;11.40;40.50
80695;DHT22;70059;42.702;23.312;2024-03-23T07:08:57;11.60;39.30
80695;DHT22;70059;42.702;23.312;2024-03-23T07:11:25;11.90;38.30
80695;DHT22;70059;42.702;23.312;2024-03-23T07:13:51;12.30;37.60
80695;DHT22;70059;42.702;23.312;2024-03-23T07:16:17;12.80;36.10
80695;DHT22;70059;42.702;23.312;2024-03-23T07:18:43;13.40;35.30
80695;DHT22;70059;42.702;23.312;2024-03-23T07:21:09;14.00;33.50
80695;DHT22;70059;42.702;23.312;2024-03-23T07:23:35;14.70;31.70
80695;DHT22;70059;42.702;23.312;2024-03-23T07:26:04;15.20;31.00
80695;DHT22;70059;42.702;23.312;2024-03-23T07:28:34;15.70;29.50
80695;DHT22;70059;42.702;23.312;2024-03-23T07:31:10;16.10;28.50
80695;DHT22;70059;42.702;23.312;2024-03-23T07:33:44;16.90;27.80
80695;DHT22;70059;42.702;23.312;2024-03-23T07:36:10;17.80;26.40
80695;DHT22;70059;42.702;23.312;2024-03-23T07:38:36;18.30;25.50
80695;DHT22;70059;42.702;23.312;2024-03-23T07:41:05;19.10;24.20
80695;DHT22;70059;42.702;23.312;2024-03-23T07:43:31;19.90;23.40
80695;DHT22;70059;42.702;23.312;2024-03-23T07:45:58;20.70;21.80
80695;DHT22;70059;42.702;23.312;2024-03-23T07:48:24;21.30;21.60
80695;DHT22;70059;42.702;23.312;2024-03-23T07:51:20;21.90;21.00
80695;DHT22;70059;42.702;23.312;2024-03-23T07:53:45;23.10;19.10
80695;DHT22;70059;42.702;23.312;2024-03-23T07:56:14;24.00;18.60
80695;DHT22;70059;42.702;23.312;2024-03-23T07:58:40;24.80;17.20
80695;DHT22;70059;42.702;23.312;2024-03-23T08:01:11;25.30;16.30
80695;DHT22;70059;42.702;23.312;2024-03-23T08:03:38;26.20;16.10
80695;DHT22;70059;42.702;23.312;2024-03-23T08:06:17;26.90;14.30
80695;DHT22;70059;42.702;23.312;2024-03-23T08:08:46;27.10;14.40
80695;DHT22;70059;42.702;23.312;2024-03-23T08:11:12;27.50;14.30
80695;DHT22;70059;42.702;23.312;2024-03-23T08:13:40;27.60;13.70
80695;DHT22;70059;42.702;23.312;2024-03-23T08:16:06;28.20;12.90
80695;DHT22;70059;42.702;23.312;2024-03-23T08:18:32;28.80;13.90
80695;DHT22;70059;42.702;23.312;2024-03-23T08:20:59;29.00;12.30
80695;DHT22;70059;42.702;23.312;2024-03-23T08:23:26;28.80;12.80
80695;DHT22;70059;42.702;23.312;2024-03-23T08:25:57;30.00;12.00
80695;DHT22;70059;42.702;23.312;2024-03-23T08:28:22;30.70;11.40
80695;DHT22;70059;42.702;23.312;2024-03-23T08:30:48;31.20;11.00
80695;DHT22;70059;42.702;23.312;2024-03-23T08:33:15;31.30;10.30
80695;DHT22;70059;42.702;23.312;2024-03-23T08:35:55;31.30;10.30
80695;DHT22;70059;42.702;23.312;2024-03-23T08:38:22;31.80;9.80
80695;DHT22;70059;42.702;23.312;2024-03-23T08:40:55;32.70;9.20
80695;DHT22;70059;42.702;23.312;2024-03-23T08:43:21;33.10;8.60
80695;DHT22;70059;42.702;23.312;2024-03-23T08:45:48;32.90;8.50
80695;DHT22;70059;42.702;23.312;2024-03-23T08:48:13;32.30;9.20
80695;DHT22;70059;42.702;23.312;2024-03-23T08:50:39;32.60;9.50
80695;DHT22;70059;42.702;23.312;2024-03-23T08:53:04;33.30;8.70
80695;DHT22;70059;42.702;23.312;2024-03-23T08:55:31;34.20;8.20
80695;DHT22;70059;42.702;23.312;2024-03-23T08:57:57;34.30;7.80
80695;DHT22;70059;42.702;23.312;2024-03-23T09:00:24;35.10;7.60
80695;DHT22;70059;42.702;23.312;2024-03-23T09:02:50;35.30;7.20
80695;DHT22;70059;42.702;23.312;2024-03-23T09:05:17;36.00;7.20
80695;DHT22;70059;42.702;23.312;2024-03-23T09:07:42;36.10;6.80
80695;DHT22;70059;42.702;23.312;2024-03-23T09:10:08;36.60;6.60
80695;DHT22;70059;42.702;23.312;2024-03-23T09:12:34;37.30;6.00
80695;DHT22;70059;42.702;23.312;2024-03-23T09:15:00;37.60;5.90
80695;DHT22;70059;42.702;23.312;2024-03-23T09:17:25;37.70;5.50
80695;DHT22;70059;42.702;23.312;2024-03-23T09:19:51;37.40;5.70
80695;DHT22;70059;42.702;23.312;2024-03-23T09:22:17;37.90;5.20
80695;DHT22;70059;42.702;23.312;2024-03-23T09:24:42;38.10;5.20
80695;DHT22;70059;42.702;23.312;2024-03-23T09:27:08;38.60;4.80
80695;DHT22;70059;42.702;23.312;2024-03-23T09:29:34;39.20;4.90
80695;DHT22;70059;42.702;23.312;2024-03-23T09:31:59;39.30;4.40
80695;DHT22;70059;42.702;23.312;2024-03-23T09:34:34;39.10;4.40
80695;DHT22;70059;42.702;23.312;2024-03-23T09:37:05;39.80;4.30
80695;DHT22;70059;42.702;23.312;2024-03-23T09:39:32;40.00;4.00
80695;DHT22;70059;42.702;23.312;2024-03-23T09:41:58;39.90;4.20
80695;DHT22;70059;42.702;23.312;2024-03-23T09:44:24;39.90;4.30
80695;DHT22;70059;42.702;23.312;2024-03-23T09:46:51;40.00;3.90
80695;DHT22;70059;42.702;23.312;2024-03-23T09:49:17;40.30;4.10
80695;DHT22;70059;42.702;23.312;2024-03-23T09:51:43;40.50;3.80
80695;DHT22;70059;42.702;23.312;2024-03-23T09:54:08;40.70;3.50
80695;DHT22;70059;42.702;23.312;2024-03-23T09:56:34;40.60;3.20
80695;DHT22;70059;42.702;23.312;2024-03-23T09:59:03;40.70;3.50
80695;DHT22;70059;42.702;23.312;2024-03-23T10:01:30;40.80;3.70
80695;DHT22;70059;42.702;23.312;2024-03-23T10:03:56;41.10;3.30
80695;DHT22;70059;42.702;23.312;2024-03-23T10:06:22;41.00;3.10
80695;DHT22;70059;42.702;23.312;2024-03-23T10:08:51;41.50;2.90
80695;DHT22;70059;42.702;23.312;2024-03-23T10:11:17;41.40;3.10
80695;DHT22;70059;42.702;23.312;2024-03-23T10:13:44;41.70;2.90
80695;DHT22;70059;42.702;23.312;2024-03-23T10:16:10;42.00;2.80
80695;DHT22;70059;42.702;23.312;2024-03-23T10:18:39;41.60;2.70
80695;DHT22;70059;42.702;23.312;2024-03-23T10:23:38;41.70;3.40
80695;DHT22;70059;42.702;23.312;2024-03-23T10:29:06;41.40;2.50
80695;DHT22;70059;42.702;23.312;2024-03-23T10:31:37;40.90;3.00
80695;DHT22;70059;42.702;23.312;2024-03-23T10:34:05;41.00;3.50
80695;DHT22;70059;42.702;23.312;2024-03-23T10:36:31;41.20;3.00
80695;DHT22;70059;42.702;23.312;2024-03-23T10:38:57;41.40;2.70
80695;DHT22;70059;42.702;23.312;2024-03-23T10:41:27;41.70;3.00
80695;DHT22;70059;42.702;23.312;2024-03-23T10:43:53;42.20;2.80
80695;DHT22;70059;42.702;23.312;2024-03-23T10:46:20;42.10;2.30
80695;DHT22;70059;42.702;23.312;2024-03-23T10:48:46;42.10;2.70
80695;DHT22;70059;42.702;23.312;2024-03-23T10:51:12;42.10;2.50
80695;DHT22;70059;42.702;23.312;2024-03-23T10:53:45;41.70;2.50
80695;DHT22;70059;42.702;23.312;2024-03-23T10:56:12;41.70;2.70
80695;DHT22;70059;42.702;23.312;2024-03-23T10:58:48;42.00;2.80
80695;DHT22;70059;42.702;23.312;2024-03-23T11:01:15;41.70;2.60
80695;DHT22;70059;42.702;23.312;2024-03-23T11:03:46;41.90;2.90
80695;DHT22;70059;42.702;23.312;2024-03-23T11:06:38;41.80;3.30
80695;DHT22;70059;42.702;23.312;2024-03-23T11:09:43;41.50;3.50
80695;DHT22;70059;42.702;23.312;2024-03-23T11:14:53;40.60;4.00
80695;DHT22;70059;42.702;23.312;2024-03-23T11:17:24;40.70;3.40
80695;DHT22;70059;42.702;23.312;2024-03-23T11:20:00;40.80;3.40
80695;DHT22;70059;42.702;23.312;2024-03-23T11:22:45;40.90;3.30
80695;DHT22;70059;42.702;23.312;2024-03-23T11:25:21;41.00;3.10
80695;DHT22;70059;42.702;23.312;2024-03-23T11:27:48;41.10;3.10
80695;DHT22;70059;42.702;23.312;2024-03-23T11:30:22;40.40;3.30
80695;DHT22;70059;42.702;23.312;2024-03-23T11:32:49;40.40;3.30
80695;DHT22;70059;42.702;23.312;2024-03-23T11:38:10;40.40;3.30
80695;DHT22;70059;42.702;23.312;2024-03-23T11:40:48;37.50;5.40
80695;DHT22;70059;42.702;23.312;2024-03-23T11:43:16;38.40;4.90
80695;DHT22;70059;42.702;23.312;2024-03-23T11:45:50;38.50;4.70
80695;DHT22;70059;42.702;23.312;2024-03-23T11:48:19;38.30;4.60
80695;DHT22;70059;42.702;23.312;2024-03-23T11:50:47;39.20;4.30
80695;DHT22;70059;42.702;23.312;2024-03-23T11:53:22;39.60;4.10
80695;DHT22;70059;42.702;23.312;2024-03-23T11:55:59;38.60;4.10
80695;DHT22;70059;42.702;23.312;2024-03-23T11:58:26;39.20;4.30
80695;DHT22;70059;42.702;23.312;2024-03-23T12:00:55;39.70;3.80
80695;DHT22;70059;42.702;23.312;2024-03-23T12:03:21;40.30;3.70
80695;DHT22;70059;42.702;23.312;2024-03-23T12:06:00;40.60;3.60
80695;DHT22;70059;42.702;23.312;2024-03-23T12:08:34;40.90;3.30
80695;DHT22;70059;42.702;23.312;2024-03-23T12:11:08;41.30;3.00
80695;DHT22;70059;42.702;23.312;2024-03-23T12:13:35;41.50;3.00
80695;DHT22;70059;42.702;23.312;2024-03-23T12:16:13;41.60;2.90
80695;DHT22;70059;42.702;23.312;2024-03-23T12:18:43;41.80;2.80
80695;DHT22;70059;42.702;23.312;2024-03-23T12:21:11;41.70;2.90
80695;DHT22;70059;42.702;23.312;2024-03-23T12:23:39;42.10;2.70
80695;DHT22;70059;42.702;23.312;2024-03-23T12:26:05;42.10;2.50
80695;DHT22;70059;42.702;23.312;2024-03-23T12:28:32;39.40;2.80
80695;DHT22;70059;42.702;23.312;2024-03-23T12:30:58;39.70;3.70
80695;DHT22;70059;42.702;23.312;2024-03-23T12:33:24;40.30;2.60
80695;DHT22;70059;42.702;23.312;2024-03-23T12:35:50;40.80;3.20
80695;DHT22;70059;42.702;23.312;2024-03-23T12:38:16;41.00;3.10
80695;DHT22;70059;42.702;23.312;2024-03-23T12:40:49;41.10;3.10
80695;DHT22;70059;42.702;23.312;2024-03-23T12:43:15;41.20;2.90
80695;DHT22;70059;42.702;23.312;2024-03-23T12:45:49;41.40;2.70
80695;DHT22;70059;42.702;23.312;2024-03-23T12:48:18;40.80;2.90
80695;DHT22;70059;42.702;23.312;2024-03-23T12:50:43;40.60;3.30
80695;DHT22;70059;42.702;23.312;2024-03-23T12:53:09;40.60;2.90
80695;DHT22;70059;42.702;23.312;2024-03-23T12:55:35;39.80;2.80
80695;DHT22;70059;42.702;23.312;2024-03-23T12:58:01;39.60;2.80
80695;DHT22;70059;42.702;23.312;2024-03-23T13:00:27;39.70;3.00
80695;DHT22;70059;42.702;23.312;2024-03-23T13:02:53;39.80;2.00
80695;DHT22;70059;42.702;23.312;2024-03-23T13:05:18;39.80;2.00
80695;DHT22;70059;42.702;23.312;2024-03-23T13:07:44;38.20;2.70
80695;DHT22;70059;42.702;23.312;2024-03-23T13:10:09;38.70;2.60
80695;DHT22;70059;42.702;23.312;2024-03-23T13:12:35;38.70;2.60
80695;DHT22;70059;42.702;23.312;2024-03-23T13:15:01;38.10;2.60
80695;DHT22;70059;42.702;23.312;2024-03-23T13:17:27;38.40;2.50
80695;DHT22;70059;42.702;23.312;2024-03-23T13:19:56;39.00;2.50
80695;DHT22;70059;42.702;23.312;2024-03-23T13:22:22;39.50;2.50
80695;DHT22;70059;42.702;23.312;2024-03-23T13:24:48;37.20;2.60
80695;DHT22;70059;42.702;23.312;2024-03-23T13:27:13;37.40;3.20
80695;DHT22;70059;42.702;23.312;2024-03-23T13:29:39;38.10;2.80
80695;DHT22;70059;42.702;23.312;2024-03-23T13:32:05;38.30;2.70
80695;DHT22;70059;42.702;23.312;2024-03-23T13:34:31;38.50;2.70
80695;DHT22;70059;42.702;23.312;2024-03-23T13:36:58;38.80;2.30
80695;DHT22;70059;42.702;23.312;2024-03-23T13:39:24;35.30;3.40
80695;DHT22;70059;42.702;23.312;2024-03-23T13:41:50;29.70;6.60
80695;DHT22;70059;42.702;23.312;2024-03-23T13:44:16;30.10;7.50
80695;DHT22;70059;42.702;23.312;2024-03-23T13:46:42;31.70;6.60
80695;DHT22;70059;42.702;23.312;2024-03-23T13:49:26;33.20;5.60
80695;DHT22;70059;42.702;23.312;2024-03-23T13:51:55;34.30;5.10
80695;DHT22;70059;42.702;23.312;2024-03-23T13:54:22;34.90;4.80
80695;DHT22;70059;42.702;23.312;2024-03-23T13:56:52;35.20;4.80
80695;DHT22;70059;42.702;23.312;2024-03-23T13:59:18;33.00;6.00
80695;DHT22;70059;42.702;23.312;2024-03-23T14:01:44;31.50;7.10
80695;DHT22;70059;42.702;23.312;2024-03-23T14:04:14;32.20;6.80
80695;DHT22;70059;42.702;23.312;2024-03-23T14:06:42;32.90;6.40
80695;DHT22;70059;42.702;23.312;2024-03-23T14:09:07;33.60;5.40
80695;DHT22;70059;42.702;23.312;2024-03-23T14:11:37;34.00;5.70
80695;DHT22;70059;42.702;23.312;2024-03-23T14:14:04;33.30;5.40
80695;DHT22;70059;42.702;23.312;2024-03-23T14:16:31;33.50;5.60
80695;DHT22;70059;42.702;23.312;2024-03-23T14:18:56;33.40;5.90
80695;DHT22;70059;42.702;23.312;2024-03-23T14:21:30;30.00;7.40
80695;DHT22;70059;42.702;23.312;2024-03-23T14:23:55;28.80;9.10
80695;DHT22;70059;42.702;23.312;2024-03-23T14:26:22;27.20;9.30
80695;DHT22;70059;42.702;23.312;2024-03-23T14:28:49;27.20;9.70
80695;DHT22;70059;42.702;23.312;2024-03-23T14:31:15;27.40;9.90
80695;DHT22;70059;42.702;23.312;2024-03-23T14:33:41;27.60;10.40
80695;DHT22;70059;42.702;23.312;2024-03-23T14:36:12;27.60;10.20
80695;DHT22;70059;42.702;23.312;2024-03-23T14:38:38;27.30;10.30
80695;DHT22;70059;42.702;23.312;2024-03-23T14:41:03;27.00;10.80
80695;DHT22;70059;42.702;23.312;2024-03-23T14:43:30;26.60;11.10
80695;DHT22;70059;42.702;23.312;2024-03-23T14:48:39;25.80;11.60
80695;DHT22;70059;42.702;23.312;2024-03-23T14:51:05;25.10;11.90
80695;DHT22;70059;42.702;23.312;2024-03-23T14:53:44;24.50;12.90
80695;DHT22;70059;42.702;23.312;2024-03-23T14:56:14;23.90;13.50
80695;DHT22;70059;42.702;23.312;2024-03-23T14:58:52;22.20;14.90
80695;DHT22;70059;42.702;23.312;2024-03-23T15:01:18;20.90;16.20
80695;DHT22;70059;42.702;23.312;2024-03-23T15:03:44;20.30;17.00
80695;DHT22;70059;42.702;23.312;2024-03-23T15:06:10;20.30;17.30
80695;DHT22;70059;42.702;23.312;2024-03-23T15:08:36;19.70;17.90
80695;DHT22;70059;42.702;23.312;2024-03-23T15:11:07;19.30;18.80
80695;DHT22;70059;42.702;23.312;2024-03-23T15:13:36;19.50;18.90
80695;DHT22;70059;42.702;23.312;2024-03-23T15:16:03;19.40;18.80
80695;DHT22;70059;42.702;23.312;2024-03-23T15:18:30;19.40;18.80
80695;DHT22;70059;42.702;23.312;2024-03-23T15:20:57;19.20;18.80
80695;DHT22;70059;42.702;23.312;2024-03-23T15:23:23;19.20;18.90
80695;DHT22;70059;42.702;23.312;2024-03-23T15:25:56;19.20;19.40
80695;DHT22;70059;42.702;23.312;2024-03-23T15:28:23;19.30;19.30
80695;DHT22;70059;42.702;23.312;2024-03-23T15:30:49;19.20;19.30
80695;DHT22;70059;42.702;23.312;2024-03-23T15:33:14;19.40;20.10
80695;DHT22;70059;42.702;23.312;2024-03-23T15:35:40;19.50;19.60
80695;DHT22;70059;42.702;23.312;2024-03-23T15:38:06;19.60;19.30
80695;DHT22;70059;42.702;23.312;2024-03-23T15:40:31;19.70;19.40
80695;DHT22;70059;42.702;23.312;2024-03-23T15:42:57;19.80;19.00
80695;DHT22;70059;42.702;23.312;2024-03-23T15:45:23;19.80;19.20
80695;DHT22;70059;42.702;23.312;2024-03-23T15:47:48;19.80;19.20
80695;DHT22;70059;42.702;23.312;2024-03-23T15:50:15;19.70;19.10
80695;DHT22;70059;42.702;23.312;2024-03-23T15:52:40;19.70;19.20
80695;DHT22;70059;42.702;23.312;2024-03-23T15:55:06;19.70;19.20
80695;DHT22;70059;42.702;23.312;2024-03-23T15:57:33;19.30;19.00
80695;DHT22;70059;42.702;23.312;2024-03-23T16:00:00;19.00;19.80
80695;DHT22;70059;42.702;23.312;2024-03-23T16:02:26;18.90;20.20
80695;DHT22;70059;42.702;23.312;2024-03-23T16:04:53;18.80;20.10
80695;DHT22;70059;42.702;23.312;2024-03-23T16:07:19;18.50;20.50
80695;DHT22;70059;42.702;23.312;2024-03-23T16:09:45;18.60;21.00
80695;DHT22;70059;42.702;23.312;2024-03-23T16:12:10;18.70;21.00
80695;DHT22;70059;42.702;23.312;2024-03-23T16:14:37;18.60;20.20
80695;DHT22;70059;42.702;23.312;2024-03-23T16:17:03;18.10;20.80
80695;DHT22;70059;42.702;23.312;2024-03-23T16:19:29;17.90;21.10
80695;DHT22;70059;42.702;23.312;2024-03-23T16:21:57;17.70;21.60
80695;DHT22;70059;42.702;23.312;2024-03-23T16:24:23;17.60;21.80
80695;DHT22;70059;42.702;23.312;2024-03-23T16:26:48;17.60;22.10
80695;DHT22;70059;42.702;23.312;2024-03-23T16:29:14;17.60;21.20
80695;DHT22;70059;42.702;23.312;2024-03-23T16:31:40;17.40;20.50
80695;DHT22;70059;42.702;23.312;2024-03-23T16:34:06;17.30;20.50
80695;DHT22;70059;42.702;23.312;2024-03-23T16:36:32;17.20;21.10